Eltham, United Kingdom
Current Conditions -  °F | °C
As of 9:50 AM on Thursday 23 Oct 2014 (Local Time) from EGLC Reporting Station
Broken Clouds Broken Clouds  
Wind Chill: 57°   Ceiling: 3300
Heat Index: 57°   Visibility: 6mi
Dew Point: 46°   Wind: 10mph
Humidity: 67%   Direction: 230°SW
Pressure: 30.12"   Gusts: NA
Location:  51.45°N, 0.06°E
Report Text: EGLC 230850Z 23009KT 9999 BKN033 14/08 Q1020
Loading
Personal Weather Stations






























Interactive Weather Map
Tropical Storm Tracking
New forecast layout! Learn more

10-Day Weather Forecast

Advertisements
Track Severe Weather on mobile